Cut Bank, Montana
Current Conditions -  °F | °C
As of 9:56 PM on Saturday 25 Oct 2014 (Local Time) from KCTB Reporting Station
Scattered Clouds Scattered Clouds  
Wind Chill: 43°   Ceiling: Unl
Heat Index: 43°   Visibility: 10mi
Dew Point: 38°   Wind: 3mph
Humidity: 82%   Direction: 90°E
Pressure: 29.62"   Gusts: NA
Location:  48.63°N, 112.33°W
Report Text: KCTB 260356Z AUTO 09003KT 10SM SCT110 06/03 A2962 RMK AO2 SLP034 T00610033
Loading
Personal Weather Stations






























Interactive Weather Map
Tropical Storm Tracking
New forecast layout! Learn more

10-Day Weather Forecast

Advertisements
Track Severe Weather on mobile